createdAt,value
2022-10-13T00:00:54.510Z,100962.41
2022-10-13T00:01:56.752Z,100959.66
2022-10-13T00:03:02.479Z,100958.78
2022-10-13T00:04:04.744Z,100958.78
2022-10-13T00:05:08.284Z,100961.78
2022-10-13T00:06:11.684Z,100969.22
2022-10-13T00:07:13.877Z,100952.91
2022-10-13T00:08:19.483Z,100958.41
2022-10-13T00:09:21.664Z,100961.41
2022-10-13T00:10:25.474Z,100968.84
2022-10-13T00:11:30.352Z,100964.16
2022-10-13T00:12:35.406Z,100969.91
2022-10-13T00:13:40.630Z,100964.41
2022-10-13T00:14:42.806Z,100964.41
2022-10-13T00:15:46.889Z,100959.13
2022-10-13T00:16:49.064Z,100962.72
2022-10-13T00:17:51.352Z,100959.13
2022-10-13T00:18:53.742Z,100954.44
2022-10-13T00:19:55.941Z,100965.47
2022-10-13T00:21:01.409Z,100960.19
2022-10-13T00:22:03.672Z,100958.28
2022-10-13T00:23:07.027Z,100957.69
2022-10-13T00:24:12.458Z,100957.69
2022-10-13T00:25:14.663Z,100957.69
2022-10-13T00:26:18.005Z,100961.50
2022-10-13T00:27:20.728Z,100957.94
2022-10-13T00:28:23.017Z,100966.19
2022-10-13T00:29:25.380Z,100955.34
2022-10-13T00:30:27.628Z,100957.28
2022-10-13T00:31:31.960Z,100960.84
2022-10-13T00:32:36.760Z,100953.94
2022-10-13T00:33:40.361Z,100961.09
2022-10-13T00:34:43.044Z,100965.78
2022-10-13T00:35:47.877Z,100963.84
2022-10-13T00:36:50.049Z,100961.34
2022-10-13T00:37:53.814Z,100958.59
2022-10-13T00:38:57.229Z,100960.75
2022-10-13T00:39:59.863Z,100966.25
2022-10-13T00:41:02.097Z,100957.13
2022-10-13T00:42:06.679Z,100955.44
2022-10-13T00:43:20.948Z,100954.63
2022-10-13T00:45:00.978Z,100960.13
2022-10-13T00:46:03.190Z,100952.94
2022-10-13T00:47:05.492Z,100961.19
2022-10-13T00:48:08.289Z,100949.59
2022-10-13T00:49:14.554Z,100953.41
2022-10-13T00:50:28.355Z,100954.47
2022-10-13T00:51:35.232Z,100953.66
2022-10-13T00:52:40.198Z,100951.09
2022-10-13T00:53:44.044Z,100955.78
2022-10-13T00:54:49.498Z,100948.59
2022-10-13T00:55:53.592Z,100946.06
2022-10-13T00:56:56.210Z,100947.13
2022-10-13T00:58:05.128Z,100946.31
2022-10-13T00:59:19.207Z,100944.63
2022-10-13T01:00:24.971Z,100949.88
2022-10-13T01:01:27.163Z,100944.63
2022-10-13T01:02:33.304Z,100952.06
2022-10-13T01:03:38.722Z,100948.44
2022-10-13T01:04:44.422Z,100944.84
2022-10-13T01:05:48.698Z,100946.56
2022-10-13T01:06:52.346Z,100944.84
2022-10-13T01:07:59.736Z,100948.69
2022-10-13T01:09:02.025Z,100945.09
2022-10-13T01:10:04.817Z,100959.69
2022-10-13T01:11:25.433Z,100942.34
2022-10-13T01:12:48.185Z,100953.34
2022-10-13T01:14:03.675Z,100946.16
2022-10-13T01:15:14.255Z,100947.00
2022-10-13T01:16:22.311Z,100952.50
2022-10-13T01:17:45.125Z,100946.16
2022-10-13T01:19:26.613Z,100949.16
2022-10-13T01:20:48.345Z,100947.00
2022-10-13T01:22:14.175Z,100940.66
2022-10-13T01:23:19.254Z,100941.50
2022-10-13T01:24:36.360Z,100935.97
2022-10-13T01:25:53.783Z,100938.72
2022-10-13T01:27:12.762Z,100938.72
2022-10-13T01:28:45.960Z,100933.22
2022-10-13T01:30:21.895Z,100931.34
2022-10-13T01:31:52.183Z,100941.25
2022-10-13T01:33:00.286Z,100931.34
2022-10-13T01:34:09.959Z,100934.09
2022-10-13T01:35:33.796Z,100938.50
2022-10-13T01:36:54.888Z,100931.09
2022-10-13T01:38:19.019Z,100928.34
2022-10-13T01:39:34.227Z,100930.03
2022-10-13T01:40:50.101Z,100928.09
2022-10-13T01:41:57.247Z,100925.34
2022-10-13T01:43:12.065Z,100932.53
2022-10-13T01:44:37.692Z,100924.28
2022-10-13T01:45:49.621Z,100922.34
2022-10-13T01:46:53.375Z,100921.28
2022-10-13T01:47:58.254Z,100924.03
2022-10-13T01:49:04.707Z,100926.78
2022-10-13T01:50:08.049Z,100915.78
2022-10-13T01:51:19.877Z,100911.09
2022-10-13T01:52:26.524Z,100922.13
2022-10-13T01:53:30.072Z,100919.34
2022-10-13T01:54:33.043Z,100917.72
2022-10-13T01:55:35.941Z,100918.53
2022-10-13T01:56:38.368Z,100920.22
2022-10-13T01:57:42.718Z,100917.47
2022-10-13T01:58:45.711Z,100911.97
2022-10-13T01:59:47.918Z,100915.28
2022-10-13T02:01:13.268Z,100910.66
2022-10-13T02:02:33.084Z,100912.34
2022-10-13T02:04:00.006Z,100915.91
2022-10-13T02:05:23.400Z,100910.41
2022-10-13T02:06:36.230Z,100913.78
2022-10-13T02:07:46.977Z,100904.91
2022-10-13T02:09:08.393Z,100911.25
2022-10-13T02:10:37.524Z,100908.28
2022-10-13T02:11:49.484Z,100904.06
2022-10-13T02:13:01.547Z,100901.91
2022-10-13T02:14:16.541Z,100904.91
2022-10-13T02:15:24.498Z,100908.47
2022-10-13T02:16:31.415Z,100905.53
2022-10-13T02:17:36.980Z,100901.91
2022-10-13T02:18:39.330Z,100905.53
2022-10-13T02:19:41.766Z,100907.41
2022-10-13T02:20:46.100Z,100904.66
2022-10-13T02:21:48.842Z,100906.34
2022-10-13T02:22:57.996Z,100908.28
2022-10-13T02:24:00.187Z,100905.53
2022-10-13T02:25:02.468Z,100906.34
2022-10-13T02:26:05.427Z,100905.28
2022-10-13T02:27:09.595Z,100899.78
2022-10-13T02:28:14.346Z,100899.78
2022-10-13T02:29:19.936Z,100902.53
2022-10-13T02:30:25.203Z,100901.47
2022-10-13T02:31:27.439Z,100897.84
2022-10-13T02:32:29.763Z,100903.13
2022-10-13T02:33:32.196Z,100899.53
2022-10-13T02:34:34.397Z,100900.34
2022-10-13T02:35:36.623Z,100901.22
2022-10-13T02:36:40.182Z,100898.22
2022-10-13T02:37:42.473Z,100896.53
2022-10-13T02:38:45.223Z,100898.22
2022-10-13T02:39:47.516Z,100897.41
2022-10-13T02:40:52.641Z,100897.41
2022-10-13T02:41:56.703Z,100898.84
2022-10-13T02:42:58.889Z,100897.97
2022-10-13T02:44:01.140Z,100892.47
2022-10-13T02:45:10.478Z,100897.97
2022-10-13T02:46:14.959Z,100904.34
2022-10-13T02:47:18.067Z,100906.25
2022-10-13T02:48:20.277Z,100898.84
2022-10-13T02:49:22.494Z,100899.44
2022-10-13T02:50:24.799Z,100888.66
2022-10-13T02:51:27.156Z,100900.50
2022-10-13T02:52:31.657Z,100893.91
2022-10-13T02:53:33.892Z,100898.84
2022-10-13T02:54:36.108Z,100900.50
2022-10-13T02:55:38.306Z,100896.66
2022-10-13T02:56:40.479Z,100897.50
2022-10-13T02:57:42.697Z,100903.88
2022-10-13T02:58:45.008Z,100894.75
2022-10-13T02:59:47.245Z,100893.72
2022-10-13T03:00:49.569Z,100894.75
2022-10-13T03:01:51.926Z,100890.94
2022-10-13T03:02:54.348Z,100892.84
2022-10-13T03:03:56.620Z,100889.22
2022-10-13T03:04:58.828Z,100893.72
2022-10-13T03:06:04.072Z,100888.19
2022-10-13T03:07:06.260Z,100886.47
2022-10-13T03:08:08.534Z,100887.34
2022-10-13T03:09:11.489Z,100883.72
2022-10-13T03:10:14.073Z,100876.31
2022-10-13T03:11:16.258Z,100882.06
2022-10-13T03:12:18.908Z,100877.63
2022-10-13T03:13:21.531Z,100876.31
2022-10-13T03:14:23.713Z,100883.97
2022-10-13T03:15:25.968Z,100876.81
2022-10-13T03:16:31.038Z,100879.31
2022-10-13T03:17:33.217Z,100877.88
2022-10-13T03:18:35.512Z,100884.44
2022-10-13T03:19:37.691Z,100881.06
2022-10-13T03:20:40.216Z,100876.44
2022-10-13T03:21:42.684Z,100879.19
2022-10-13T03:22:49.445Z,100880.00
2022-10-13T03:23:54.619Z,100878.31
2022-10-13T03:24:58.080Z,100878.13
2022-10-13T03:26:00.528Z,100876.44
2022-10-13T03:27:02.784Z,100875.56
2022-10-13T03:28:05.076Z,100878.13
2022-10-13T03:29:07.351Z,100877.50
2022-10-13T03:30:10.452Z,100882.19
2022-10-13T03:31:14.376Z,100878.56
2022-10-13T03:32:17.660Z,100881.31
2022-10-13T03:33:20.327Z,100877.75
2022-10-13T03:34:22.523Z,100885.75
2022-10-13T03:35:24.864Z,100879.63
2022-10-13T03:36:27.142Z,100882.38
2022-10-13T03:37:30.796Z,100882.38
2022-10-13T03:38:35.263Z,100876.88
2022-10-13T03:39:38.136Z,100872.47
2022-10-13T03:40:41.293Z,100867.16
2022-10-13T03:41:43.546Z,100869.94
2022-10-13T03:42:45.701Z,100871.84
2022-10-13T03:43:48.171Z,100869.94
2022-10-13T03:44:55.251Z,100874.84
2022-10-13T03:46:00.281Z,100878.44
2022-10-13T03:47:02.542Z,100879.50
2022-10-13T03:48:07.128Z,100871.22
2022-10-13T03:49:11.314Z,100882.25
2022-10-13T03:50:13.613Z,100873.41
2022-10-13T03:51:18.953Z,100873.41
2022-10-13T03:52:23.479Z,100881.66
2022-10-13T03:53:26.201Z,100872.53
2022-10-13T03:54:28.368Z,100880.81
2022-10-13T03:55:30.553Z,100872.53
2022-10-13T03:56:32.911Z,100879.97
2022-10-13T03:57:35.150Z,100883.22
2022-10-13T03:58:37.379Z,100875.78
2022-10-13T03:59:41.391Z,100873.03
2022-10-13T04:00:43.881Z,100871.34
2022-10-13T04:01:46.111Z,100877.72
2022-10-13T04:02:49.433Z,100871.34
2022-10-13T04:03:56.141Z,100871.09
2022-10-13T04:04:58.387Z,100874.09
2022-10-13T04:06:04.783Z,100870.50
2022-10-13T04:07:07.656Z,100867.75
2022-10-13T04:08:10.432Z,100868.59
2022-10-13T04:09:13.164Z,100866.06
2022-10-13T04:10:15.477Z,100865.25
2022-10-13T04:11:19.270Z,100872.41
2022-10-13T04:12:26.317Z,100866.06
2022-10-13T04:13:28.821Z,100863.31
2022-10-13T04:14:31.062Z,100869.91
2022-10-13T04:15:40.479Z,100867.13
2022-10-13T04:16:42.723Z,100858.06
2022-10-13T04:17:44.939Z,100859.97
2022-10-13T04:18:52.484Z,100858.28
2022-10-13T04:19:54.733Z,100862.72
2022-10-13T04:20:57.020Z,100861.63
2022-10-13T04:21:59.307Z,100861.88
2022-10-13T04:23:01.582Z,100864.38
2022-10-13T04:24:06.766Z,100862.72
2022-10-13T04:25:09.272Z,100863.78
2022-10-13T04:26:22.339Z,100861.28
2022-10-13T04:27:24.589Z,100865.09
2022-10-13T04:28:26.882Z,100859.84
2022-10-13T04:29:29.195Z,100860.66
2022-10-13T04:30:33.739Z,100864.25
2022-10-13T04:31:37.175Z,100862.59
2022-10-13T04:32:39.347Z,100858.16
2022-10-13T04:33:44.438Z,100860.91
2022-10-13T04:34:48.989Z,100862.59
2022-10-13T04:35:51.244Z,100860.03
2022-10-13T04:36:53.444Z,100863.66
2022-10-13T04:37:58.086Z,100859.22
2022-10-13T04:39:00.349Z,100857.28
2022-10-13T04:40:02.686Z,100862.81
2022-10-13T04:41:06.711Z,100855.63
2022-10-13T04:42:08.920Z,100861.34
2022-10-13T04:43:13.488Z,100863.91
2022-10-13T04:44:15.761Z,100859.69
2022-10-13T04:45:18.433Z,100860.53
2022-10-13T04:46:27.297Z,100870.72
2022-10-13T04:47:36.810Z,100859.69
2022-10-13T04:48:39.672Z,100858.00
2022-10-13T04:49:41.989Z,100850.59
2022-10-13T04:50:44.222Z,100852.25
2022-10-13T04:51:46.513Z,100852.25
2022-10-13T04:52:48.718Z,100855.25
2022-10-13T04:54:01.257Z,100855.25
2022-10-13T04:55:03.815Z,100852.50
2022-10-13T04:56:11.438Z,100857.41
2022-10-13T04:57:13.746Z,100849.13
2022-10-13T04:58:16.015Z,100856.31
2022-10-13T04:59:18.224Z,100851.06
2022-10-13T05:00:20.624Z,100850.81
2022-10-13T05:01:24.641Z,100854.63
2022-10-13T05:02:29.417Z,100846.63
2022-10-13T05:03:31.735Z,100847.44
2022-10-13T05:04:34.002Z,100843.88
2022-10-13T05:05:36.837Z,100845.56
2022-10-13T05:07:05.476Z,100844.69
2022-10-13T05:08:03.667Z,100844.69
2022-10-13T05:09:05.970Z,100837.53
2022-10-13T05:10:09.215Z,100841.13
2022-10-13T05:11:11.789Z,100834.53
2022-10-13T05:12:14.025Z,100835.38
2022-10-13T05:13:16.234Z,100843.03
2022-10-13T05:14:18.650Z,100835.84
2022-10-13T05:15:20.841Z,100836.69
2022-10-13T05:16:23.669Z,100844.94
2022-10-13T05:17:25.914Z,100842.41
2022-10-13T05:18:28.126Z,100843.03
2022-10-13T05:19:31.409Z,100847.44
2022-10-13T05:20:33.712Z,100838.13
2022-10-13T05:21:35.896Z,100842.81
2022-10-13T05:22:38.227Z,100835.38
2022-10-13T05:23:40.816Z,100840.88
2022-10-13T05:24:43.128Z,100835.38
2022-10-13T05:25:45.385Z,100836.22
2022-10-13T05:26:50.117Z,100834.06
2022-10-13T05:27:52.329Z,100838.75
2022-10-13T05:29:02.043Z,100842.09
2022-10-13T05:30:07.077Z,100842.94
2022-10-13T05:31:15.583Z,100844.00
2022-10-13T05:32:18.140Z,100842.09
2022-10-13T05:33:20.526Z,100842.94
2022-10-13T05:34:22.705Z,100839.13
2022-10-13T05:35:25.645Z,100835.50
2022-10-13T05:36:31.053Z,100831.06
2022-10-13T05:37:33.283Z,100829.19
2022-10-13T05:38:35.557Z,100839.94
2022-10-13T05:39:40.585Z,100831.69
2022-10-13T05:40:42.784Z,100840.78
2022-10-13T05:41:45.001Z,100830.63
2022-10-13T05:42:55.673Z,100830.63
2022-10-13T05:44:02.473Z,100830.63
2022-10-13T05:45:05.244Z,100825.13
2022-10-13T05:46:08.454Z,100833.97
2022-10-13T05:47:14.403Z,100830.38
2022-10-13T05:48:16.627Z,100828.44
2022-10-13T05:49:18.914Z,100831.00
2022-10-13T05:50:21.166Z,100831.59
2022-10-13T05:51:32.425Z,100828.81
2022-10-13T05:52:37.956Z,100830.13
2022-10-13T05:53:51.041Z,100828.81
2022-10-13T05:55:00.088Z,100825.25
2022-10-13T05:56:08.679Z,100829.44
2022-10-13T05:57:30.606Z,100835.19
2022-10-13T05:58:36.547Z,100836.03
2022-10-13T05:59:43.297Z,100832.19
2022-10-13T06:00:45.775Z,100832.19
2022-10-13T06:01:48.078Z,100831.09
2022-10-13T06:02:56.492Z,100833.84
2022-10-13T06:04:04.808Z,100834.47
2022-10-13T06:05:14.841Z,100830.91
2022-10-13T06:06:17.139Z,100828.13
2022-10-13T06:07:19.961Z,100831.72
2022-10-13T06:08:22.328Z,100829.78
2022-10-13T06:09:34.876Z,100824.06
2022-10-13T06:10:38.239Z,100826.81
2022-10-13T06:11:40.938Z,100828.47
2022-10-13T06:12:43.138Z,100830.16
2022-10-13T06:13:45.304Z,100829.94
2022-10-13T06:14:47.556Z,100832.47
2022-10-13T06:15:50.441Z,100828.84
2022-10-13T06:16:52.628Z,100830.53
2022-10-13T06:17:55.753Z,100833.28
2022-10-13T06:18:57.947Z,100828.63
2022-10-13T06:20:00.511Z,100835.81
2022-10-13T06:21:03.104Z,100829.22
2022-10-13T06:22:05.302Z,100834.75
2022-10-13T06:23:07.508Z,100830.53
2022-10-13T06:24:10.480Z,100826.72
2022-10-13T06:25:12.691Z,100836.66
2022-10-13T06:26:14.940Z,100838.56
2022-10-13T06:27:17.152Z,100836.66
2022-10-13T06:28:20.771Z,100833.91
2022-10-13T06:29:23.077Z,100834.75
2022-10-13T06:30:28.449Z,100833.28
2022-10-13T06:31:30.633Z,100837.50
2022-10-13T06:32:32.887Z,100831.97
2022-10-13T06:33:35.141Z,100831.97
2022-10-13T06:34:37.352Z,100832.81
2022-10-13T06:35:39.528Z,100834.75
2022-10-13T06:36:43.602Z,100828.41
2022-10-13T06:37:48.706Z,100840.25
2022-10-13T06:38:51.313Z,100846.38
2022-10-13T06:39:56.523Z,100840.00
2022-10-13T06:41:02.792Z,100845.28
2022-10-13T06:42:07.791Z,100839.56
2022-10-13T06:43:13.401Z,100842.06
2022-10-13T06:44:18.545Z,100848.16
2022-10-13T06:45:20.724Z,100850.66
2022-10-13T06:46:23.162Z,100851.06
2022-10-13T06:47:25.635Z,100850.38
2022-10-13T06:48:31.557Z,100859.22
2022-10-13T06:49:34.052Z,100846.69
2022-10-13T06:50:43.898Z,100856.16
2022-10-13T06:51:46.167Z,100850.53
2022-10-13T06:52:48.571Z,100852.34
2022-10-13T06:53:50.855Z,100855.78
2022-10-13T06:54:57.577Z,100852.09
2022-10-13T06:56:03.825Z,100852.78
2022-10-13T06:57:06.990Z,100853.28
2022-10-13T06:58:11.122Z,100859.28
2022-10-13T06:59:13.474Z,100859.97
2022-10-13T07:00:15.855Z,100867.03
2022-10-13T07:01:19.284Z,100858.41
2022-10-13T07:02:22.030Z,100854.66
2022-10-13T07:03:25.382Z,100855.13
2022-10-13T07:04:28.337Z,100854.75
2022-10-13T07:05:33.375Z,100862.41
2022-10-13T07:06:38.464Z,100862.03
2022-10-13T07:07:40.828Z,100862.25
2022-10-13T07:08:43.153Z,100863.78
2022-10-13T07:09:45.373Z,100862.91
2022-10-13T07:10:47.758Z,100865.88
2022-10-13T07:11:50.409Z,100861.63
2022-10-13T07:12:52.620Z,100864.22
2022-10-13T07:13:55.236Z,100861.91
2022-10-13T07:14:57.487Z,100863.97
2022-10-13T07:16:03.419Z,100861.41
2022-10-13T07:17:05.818Z,100873.72
2022-10-13T07:18:08.473Z,100867.78
2022-10-13T07:19:10.741Z,100864.31
2022-10-13T07:20:14.503Z,100859.22
2022-10-13T07:21:16.869Z,100867.06
2022-10-13T07:22:19.723Z,100862.47
2022-10-13T07:23:21.914Z,100869.75
2022-10-13T07:24:24.564Z,100867.59
2022-10-13T07:25:26.922Z,100862.13
2022-10-13T07:26:29.136Z,100869.34
2022-10-13T07:27:31.375Z,100862.22
2022-10-13T07:28:33.634Z,100864.19
2022-10-13T07:29:36.225Z,100860.59
2022-10-13T07:30:39.691Z,100870.06
2022-10-13T07:31:44.735Z,100865.13
2022-10-13T07:32:47.776Z,100855.13
2022-10-13T07:33:51.256Z,100868.72
2022-10-13T07:34:54.143Z,100858.47
2022-10-13T07:35:59.317Z,100854.88
2022-10-13T07:37:01.724Z,100852.09
2022-10-13T07:38:04.977Z,100848.78
2022-10-13T07:39:10.744Z,100840.22
2022-10-13T07:40:13.106Z,100848.50
2022-10-13T07:41:15.808Z,100839.34
2022-10-13T07:42:18.192Z,100833.56
2022-10-13T07:43:20.415Z,100845.22
2022-10-13T07:44:22.980Z,100844.41
2022-10-13T07:45:25.571Z,100836.91
2022-10-13T07:46:30.427Z,100836.66
2022-10-13T07:47:32.652Z,100837.50
2022-10-13T07:48:35.466Z,100831.66
2022-10-13T07:49:37.836Z,100838.84
2022-10-13T07:50:40.329Z,100840.28
2022-10-13T07:51:43.458Z,100832.53
2022-10-13T07:52:46.110Z,100828.94
2022-10-13T07:53:49.039Z,100828.41
2022-10-13T07:54:51.642Z,100822.88
2022-10-13T07:55:53.910Z,100839.22
2022-10-13T07:56:56.538Z,100827.91
2022-10-13T07:58:01.952Z,100824.63
2022-10-13T07:59:09.359Z,100823.53
2022-10-13T08:00:12.237Z,100821.34
2022-10-13T08:01:17.531Z,100811.94
2022-10-13T08:02:20.287Z,100815.03
2022-10-13T08:03:25.807Z,100820.91
2022-10-13T08:04:32.522Z,100821.72
2022-10-13T08:05:39.437Z,100820.09
2022-10-13T08:06:42.661Z,100811.28
2022-10-13T08:07:44.918Z,100813.53
2022-10-13T08:08:47.265Z,100812.19
2022-10-13T08:09:51.755Z,100808.06
2022-10-13T08:12:17.102Z,100813.66
2022-10-13T08:13:19.418Z,100805.41
2022-10-13T08:14:21.704Z,100804.59
2022-10-13T08:15:23.979Z,100807.41
2022-10-13T08:16:27.466Z,100801.94
2022-10-13T08:17:29.708Z,100806.44
2022-10-13T08:18:32.486Z,100799.84
2022-10-13T08:19:34.961Z,100813.25
2022-10-13T08:20:45.387Z,100804.44
2022-10-13T08:22:07.852Z,100805.06
2022-10-13T08:23:13.205Z,100792.38
2022-10-13T08:24:23.942Z,100792.47
2022-10-13T08:25:26.305Z,100791.94
2022-10-13T08:26:29.048Z,100801.44
2022-10-13T08:27:49.796Z,100797.34
2022-10-13T08:30:16.049Z,100791.63
2022-10-13T08:31:19.203Z,100786.41
2022-10-13T08:32:23.108Z,100788.41
2022-10-13T08:33:27.684Z,100788.97
2022-10-13T08:34:29.929Z,100788.25
2022-10-13T08:35:34.875Z,100785.19
2022-10-13T08:36:38.018Z,100780.50
2022-10-13T08:37:40.193Z,100783.31
2022-10-13T08:38:43.451Z,100782.78
2022-10-13T08:39:45.951Z,100782.78
2022-10-13T08:40:50.053Z,100780.31
2022-10-13T08:41:53.174Z,100779.22
2022-10-13T08:42:59.494Z,100780.63
2022-10-13T08:44:56.780Z,100780.63
2022-10-13T08:45:46.678Z,100783.97
2022-10-13T08:47:09.701Z,100787.56
2022-10-13T08:48:18.305Z,100781.72
2022-10-13T08:49:20.559Z,100777.53
2022-10-13T08:50:25.488Z,100779.22
2022-10-13T08:51:29.137Z,100776.41
2022-10-13T08:52:57.535Z,100778.06
2022-10-13T08:54:00.035Z,100784.13
2022-10-13T08:55:02.501Z,100776.06
2022-10-13T08:56:15.063Z,100771.28
2022-10-13T08:57:18.786Z,100775.44
2022-10-13T08:58:29.625Z,100774.88
2022-10-13T08:59:31.878Z,100769.53
2022-10-13T09:00:34.087Z,100766.16
2022-10-13T09:01:37.169Z,100763.59
2022-10-13T09:02:40.039Z,100766.63
2022-10-13T09:03:50.494Z,100757.63
2022-10-13T09:04:53.996Z,100762.63
2022-10-13T09:06:34.977Z,100756.13
2022-10-13T09:07:41.001Z,100765.81
2022-10-13T09:08:50.151Z,100760.22
2022-10-13T09:09:54.815Z,100758.50
2022-10-13T09:11:00.029Z,100751.78
2022-10-13T09:12:03.049Z,100749.25
2022-10-13T09:13:05.695Z,100751.16
2022-10-13T09:14:10.867Z,100749.47
2022-10-13T09:15:13.208Z,100751.38
2022-10-13T09:16:15.563Z,100749.38
2022-10-13T09:17:19.686Z,100755.75
2022-10-13T09:18:29.992Z,100752.91
2022-10-13T09:19:36.402Z,100748.94
2022-10-13T09:20:41.606Z,100751.66
2022-10-13T09:21:43.861Z,100750.78
2022-10-13T09:23:02.219Z,100752.41
2022-10-13T09:24:13.428Z,100747.59
2022-10-13T09:25:15.568Z,100747.22
2022-10-13T09:26:24.053Z,100745.75
2022-10-13T09:27:26.334Z,100745.69
2022-10-13T09:28:30.430Z,100742.03
2022-10-13T09:29:33.108Z,100753.13
2022-10-13T09:30:41.673Z,100743.88
2022-10-13T09:31:43.943Z,100742.69
2022-10-13T09:32:46.211Z,100746.53
2022-10-13T09:33:58.920Z,100742.84
2022-10-13T09:35:20.674Z,100747.22
2022-10-13T09:36:22.890Z,100739.94
2022-10-13T09:37:26.287Z,100743.78
2022-10-13T09:38:30.278Z,100732.53
2022-10-13T09:39:33.703Z,100735.25
2022-10-13T09:40:37.740Z,100729.88
2022-10-13T09:41:41.499Z,100728.44
2022-10-13T09:42:54.206Z,100732.00
2022-10-13T09:43:56.413Z,100726.66
2022-10-13T09:45:13.444Z,100732.16
2022-10-13T09:46:25.736Z,100729.56
2022-10-13T09:47:30.232Z,100733.72
2022-10-13T09:48:37.204Z,100736.44
2022-10-13T09:49:44.241Z,100731.09
2022-10-13T09:50:52.100Z,100722.09
2022-10-13T09:52:00.826Z,100724.28
2022-10-13T09:53:29.971Z,100728.97
2022-10-13T09:54:35.564Z,100725.59
2022-10-13T09:55:37.863Z,100718.25
2022-10-13T09:56:51.949Z,100726.56
2022-10-13T09:58:03.361Z,100732.88
2022-10-13T09:59:27.887Z,100734.47
2022-10-13T10:00:32.480Z,100731.91
2022-10-13T10:01:39.755Z,100724.53
2022-10-13T10:02:54.156Z,100723.91
2022-10-13T10:03:57.869Z,100719.34
2022-10-13T10:05:18.373Z,100724.66
2022-10-13T10:06:26.870Z,100730.47
2022-10-13T10:07:33.147Z,100724.28
2022-10-13T10:09:02.845Z,100727.88
2022-10-13T10:10:18.945Z,100721.16
2022-10-13T10:11:41.614Z,100715.25
2022-10-13T10:12:44.543Z,100708.81
2022-10-13T10:13:49.807Z,100722.50
2022-10-13T10:14:52.039Z,100711.31
2022-10-13T10:16:02.800Z,100702.38
2022-10-13T10:17:30.331Z,100708.50
2022-10-13T10:18:46.031Z,100707.97
2022-10-13T10:20:15.925Z,100711.09
2022-10-13T10:21:55.331Z,100704.69
2022-10-13T10:23:07.921Z,100706.94
2022-10-13T10:24:28.752Z,100704.47
2022-10-13T10:25:47.029Z,100705.59
2022-10-13T10:27:18.070Z,100712.03
2022-10-13T10:28:35.840Z,100707.56
2022-10-13T10:30:01.956Z,100703.91
2022-10-13T10:31:27.632Z,100693.03
2022-10-13T10:32:55.784Z,100699.78
2022-10-13T10:34:08.229Z,100702.88
2022-10-13T10:35:15.987Z,100701.22
2022-10-13T10:36:23.805Z,100704.34
2022-10-13T10:37:35.014Z,100698.22
2022-10-13T10:38:55.392Z,100696.56
2022-10-13T10:40:23.831Z,100700.19
2022-10-13T10:41:45.199Z,100698.50
2022-10-13T10:42:58.072Z,100696.03
2022-10-13T10:44:32.093Z,100688.75
2022-10-13T10:45:39.015Z,100692.72
2022-10-13T10:46:47.065Z,100688.25
2022-10-13T10:47:54.106Z,100693.84
2022-10-13T10:49:25.972Z,100686.59
2022-10-13T10:50:30.941Z,100682.13
2022-10-13T10:51:37.936Z,100683.25
2022-10-13T10:53:05.330Z,100684.09
2022-10-13T10:54:07.633Z,100684.41
2022-10-13T10:55:38.051Z,100671.56
2022-10-13T10:57:09.534Z,100673.22
2022-10-13T10:58:37.489Z,100667.63
2022-10-13T11:00:13.715Z,100671.78
2022-10-13T11:01:24.929Z,100663.69
2022-10-13T11:02:32.941Z,100668.44
2022-10-13T11:03:54.411Z,100660.59
2022-10-13T11:05:05.098Z,100654.16
2022-10-13T11:06:17.967Z,100659.75
2022-10-13T11:07:25.373Z,100658.94
2022-10-13T11:08:42.531Z,100655.28
2022-10-13T11:09:44.762Z,100646.06
2022-10-13T11:10:47.016Z,100643.81
2022-10-13T11:11:50.393Z,100652.19
2022-10-13T11:12:54.869Z,100649.41
2022-10-13T11:14:06.347Z,100641.84
2022-10-13T11:15:14.111Z,100636.22
2022-10-13T11:16:27.527Z,100639.84
2022-10-13T11:17:38.066Z,100635.09
2022-10-13T11:19:06.627Z,100633.13
2022-10-13T11:20:21.102Z,100628.66
2022-10-13T11:21:23.561Z,100628.38
2022-10-13T11:22:31.137Z,100632.81
2022-10-13T11:23:34.313Z,100622.47
2022-10-13T11:24:38.790Z,100628.06
2022-10-13T11:25:48.915Z,100624.13
2022-10-13T11:26:51.359Z,100611.78
2022-10-13T11:27:53.965Z,100611.78
2022-10-13T11:28:56.273Z,100619.88
2022-10-13T11:30:00.471Z,100615.94
2022-10-13T11:31:05.405Z,100610.31
2022-10-13T11:32:27.640Z,100613.13
2022-10-13T11:33:32.928Z,100610.31
2022-10-13T11:34:35.264Z,100608.38
2022-10-13T11:35:38.882Z,100610.31
2022-10-13T11:36:51.653Z,100612.00
2022-10-13T11:38:07.671Z,100607.53
2022-10-13T11:39:27.473Z,100609.19
2022-10-13T11:40:35.246Z,100603.59
2022-10-13T11:41:52.598Z,100610.03
2022-10-13T11:43:23.718Z,100610.88
2022-10-13T11:44:43.873Z,100608.88
2022-10-13T11:46:15.977Z,100606.94
2022-10-13T11:47:54.005Z,100606.63
2022-10-13T11:49:08.662Z,100605.78
2022-10-13T11:50:22.878Z,100607.44
2022-10-13T11:51:34.233Z,100609.09
2022-10-13T11:53:04.285Z,100605.16
2022-10-13T11:54:31.706Z,100597.31
2022-10-13T11:55:48.955Z,100596.97
2022-10-13T11:56:57.504Z,100591.06
2022-10-13T11:58:20.405Z,100589.94
2022-10-13T11:59:28.510Z,100586.81
2022-10-13T12:00:30.806Z,100590.97
2022-10-13T12:01:33.102Z,100590.66
2022-10-13T12:02:35.452Z,100587.53
2022-10-13T12:03:40.735Z,100588.88
2022-10-13T12:05:05.305Z,100581.34
2022-10-13T12:06:37.046Z,100586.28
2022-10-13T12:07:41.769Z,100576.75
2022-10-13T12:08:49.903Z,100583.72
2022-10-13T12:09:54.756Z,100579.78
2022-10-13T12:11:00.100Z,100571.88
2022-10-13T12:12:17.934Z,100571.56
2022-10-13T12:13:26.780Z,100567.63
2022-10-13T12:14:53.695Z,100574.56
2022-10-13T12:16:15.617Z,100572.28
2022-10-13T12:17:31.599Z,100569.16
2022-10-13T12:18:38.429Z,100565.22
2022-10-13T12:19:40.768Z,100566.91
2022-10-13T12:20:42.952Z,100572.22
2022-10-13T12:21:53.606Z,100569.41
2022-10-13T12:22:56.640Z,100568.25
2022-10-13T12:24:11.718Z,100566.28
2022-10-13T12:25:23.767Z,100567.97
2022-10-13T12:26:28.784Z,100574.38
2022-10-13T12:27:45.226Z,100567.97
2022-10-13T12:28:56.803Z,100567.97
2022-10-13T12:30:00.777Z,100560.38
2022-10-13T12:31:03.343Z,100572.09
2022-10-13T12:32:19.169Z,100568.13
2022-10-13T12:33:32.366Z,100564.50
2022-10-13T12:34:36.500Z,100570.13
2022-10-13T12:35:39.072Z,100563.38
2022-10-13T12:36:45.558Z,100556.94
2022-10-13T12:37:48.845Z,100559.44
2022-10-13T12:38:54.110Z,100560.25
2022-10-13T12:39:58.173Z,100563.88
2022-10-13T12:41:00.527Z,100556.31
2022-10-13T12:42:04.054Z,100567.19
2022-10-13T12:43:07.020Z,100560.47
2022-10-13T12:44:15.388Z,100568.53
2022-10-13T12:45:21.613Z,100562.94
2022-10-13T12:46:47.505Z,100558.16
2022-10-13T12:47:55.177Z,100564.28
2022-10-13T12:49:10.406Z,100558.69